Time;durP1;ratioP1;P1;durP2;ratioP2;P2;SDS_P1;SDS_P2;PMS_P1;PMS_P2;Temp;Humidity;BMP_temperature;BMP_pressure;BME280_temperature;BME280_humidity;BME280_pressure;Samples;Min_cycle;Max_cycle;Signal;HPM_P1;HPM_P2
2021/07/10 00:00:29;;;;;;;7.40;3.10;;;14.60;99.90;;;;;;5043581;28;20578;-78
2021/07/10 00:02:56;;;;;;;3.57;3.10;;;14.60;99.90;;;;;;5044912;28;20233;-78
2021/07/10 00:05:23;;;;;;;3.60;2.90;;;14.50;99.90;;;;;;5041414;28;20671;-78
2021/07/10 00:07:49;;;;;;;3.80;3.40;;;14.40;99.90;;;;;;5041229;28;20724;-78
2021/07/10 00:10:18;;;;;;;6.33;3.10;;;14.40;99.90;;;;;;5039808;28;20307;-78
2021/07/10 00:12:46;;;;;;;3.97;3.30;;;14.30;99.90;;;;;;5041603;28;20196;-78
2021/07/10 00:15:15;;;;;;;4.67;3.70;;;14.30;99.90;;;;;;5040941;28;20745;-78
2021/07/10 00:17:44;;;;;;;3.57;3.23;;;14.30;99.90;;;;;;5039509;28;20196;-78
2021/07/10 00:20:12;;;;;;;4.57;3.20;;;14.30;99.90;;;;;;5039814;28;20276;-78
2021/07/10 00:22:40;;;;;;;3.73;3.10;;;14.20;99.90;;;;;;5041666;28;20315;-78
2021/07/10 00:25:08;;;;;;;5.67;3.30;;;14.20;99.90;;;;;;5041591;28;20228;-78
2021/07/10 00:27:35;;;;;;;4.53;3.43;;;14.20;99.90;;;;;;5043505;28;20239;-78
2021/07/10 00:30:03;;;;;;;4.70;3.40;;;14.10;99.90;;;;;;5040662;28;20232;-78
2021/07/10 00:32:30;;;;;;;5.20;3.50;;;14.10;99.90;;;;;;5041354;28;20279;-78
2021/07/10 00:34:58;;;;;;;3.90;3.50;;;14.10;99.90;;;;;;5048357;28;20231;-78
2021/07/10 00:37:25;;;;;;;3.80;3.50;;;14.10;99.90;;;;;;5041051;28;20282;-78
2021/07/10 00:39:52;;;;;;;3.47;3.17;;;14.10;99.90;;;;;;5044898;28;20294;-78
2021/07/10 00:42:21;;;;;;;4.10;3.63;;;14.10;99.90;;;;;;5032595;28;20723;-78
2021/07/10 00:44:49;;;;;;;4.97;3.50;;;14.10;99.90;;;;;;5041089;28;20242;-78
2021/07/10 00:47:16;;;;;;;5.83;3.63;;;14.10;99.90;;;;;;5051329;28;20691;-78
2021/07/10 00:49:43;;;;;;;3.60;3.30;;;14.10;99.90;;;;;;5052357;28;20623;-78
2021/07/10 00:52:11;;;;;;;3.90;3.50;;;14.10;99.90;;;;;;5038604;28;20311;-78
2021/07/10 00:54:38;;;;;;;3.70;3.27;;;14.10;99.90;;;;;;5032771;28;20283;-78
2021/07/10 00:57:08;;;;;;;3.93;3.20;;;14.00;99.90;;;;;;5032513;28;20292;-78
2021/07/10 00:59:36;;;;;;;4.33;3.13;;;13.90;99.90;;;;;;5040908;28;20274;-78
2021/07/10 01:02:04;;;;;;;5.07;3.20;;;13.90;99.90;;;;;;5051836;28;20634;-78
2021/07/10 01:04:31;;;;;;;5.03;3.40;;;13.90;99.90;;;;;;5036316;28;20254;-78
2021/07/10 01:06:58;;;;;;;3.90;3.00;;;14.00;99.90;;;;;;5032361;28;20224;-78
2021/07/10 01:09:26;;;;;;;4.63;3.50;;;14.00;99.90;;;;;;5040012;28;20230;-78
2021/07/10 01:11:53;;;;;;;7.43;4.13;;;14.10;99.90;;;;;;5032147;28;20334;-78
2021/07/10 01:14:20;;;;;;;5.60;3.30;;;14.20;99.90;;;;;;5039241;28;20621;-78
2021/07/10 01:16:48;;;;;;;4.53;3.20;;;14.20;99.90;;;;;;5032640;28;20204;-78
2021/07/10 01:19:22;;;;;;;3.97;3.30;;;14.10;99.90;;;;;;5037165;28;20202;-78
2021/07/10 01:21:50;;;;;;;5.30;3.90;;;14.10;99.90;;;;;;5042823;28;20226;-78
2021/07/10 01:24:17;;;;;;;4.90;3.90;;;14.20;99.90;;;;;;5045659;28;20235;-78
2021/07/10 01:26:44;;;;;;;4.70;4.20;;;14.20;99.90;;;;;;5035511;28;20291;-78
2021/07/10 01:29:11;;;;;;;5.47;3.90;;;14.30;99.90;;;;;;5044211;28;20279;-78
2021/07/10 01:31:39;;;;;;;5.50;4.60;;;14.40;99.90;;;;;;5044238;28;20303;-78
2021/07/10 01:34:07;;;;;;;5.70;3.90;;;14.30;99.90;;;;;;5050070;28;20739;-78
2021/07/10 01:36:34;;;;;;;5.47;4.30;;;14.30;99.90;;;;;;5051496;28;20282;-78
2021/07/10 01:39:06;;;;;;;6.67;4.07;;;14.30;99.90;;;;;;5041222;28;20212;-78
2021/07/10 01:41:42;;;;;;;6.00;4.30;;;14.40;99.90;;;;;;5031560;28;20295;-78
2021/07/10 01:44:09;;;;;;;6.87;4.37;;;14.40;99.90;;;;;;5031261;28;20200;-78
2021/07/10 01:46:37;;;;;;;5.40;3.87;;;14.40;99.90;;;;;;5045566;28;20695;-78
2021/07/10 01:49:04;;;;;;;5.30;4.20;;;14.40;99.90;;;;;;5049508;28;20231;-77
2021/07/10 01:51:31;;;;;;;5.67;4.37;;;14.40;99.90;;;;;;5051352;28;20307;-78
2021/07/10 01:53:58;;;;;;;5.27;4.03;;;14.50;99.90;;;;;;5051435;28;20283;-78
2021/07/10 01:56:26;;;;;;;5.30;4.40;;;14.50;99.90;;;;;;5044814;28;20238;-78
2021/07/10 01:58:54;;;;;;;5.03;4.00;;;14.40;99.90;;;;;;5049396;28;20279;-78
2021/07/10 02:01:21;;;;;;;6.30;4.50;;;14.50;99.90;;;;;;5031391;28;20247;-78
2021/07/10 02:03:48;;;;;;;5.17;4.20;;;14.50;99.90;;;;;;5038815;28;20714;-78
2021/07/10 02:06:15;;;;;;;4.70;4.17;;;14.50;99.90;;;;;;5039829;28;20210;-78
2021/07/10 02:08:43;;;;;;;5.77;4.53;;;14.50;99.90;;;;;;5038074;28;20838;-78
2021/07/10 02:11:10;;;;;;;4.73;4.33;;;14.50;99.90;;;;;;5040827;28;20219;-78
2021/07/10 02:13:39;;;;;;;5.23;4.00;;;14.50;99.90;;;;;;5039304;28;20715;-78
2021/07/10 02:16:06;;;;;;;5.87;4.20;;;14.50;99.90;;;;;;5040033;28;20232;-78
2021/07/10 02:18:33;;;;;;;6.23;4.30;;;14.50;99.90;;;;;;5042882;28;20227;-78
2021/07/10 02:21:00;;;;;;;5.30;4.30;;;14.50;99.90;;;;;;5035810;28;20312;-78
2021/07/10 02:23:27;;;;;;;6.23;4.80;;;14.50;99.90;;;;;;5030885;28;20224;-78
2021/07/10 02:25:54;;;;;;;5.40;4.70;;;14.50;99.90;;;;;;5038459;28;20227;-78
2021/07/10 02:28:21;;;;;;;5.60;4.57;;;14.50;99.90;;;;;;5038647;28;20684;-78
2021/07/10 02:30:50;;;;;;;5.53;4.40;;;14.50;99.90;;;;;;5038186;28;20291;-78
2021/07/10 02:33:17;;;;;;;5.20;4.53;;;14.50;99.90;;;;;;5031830;28;20236;-78
2021/07/10 02:35:45;;;;;;;6.53;4.93;;;14.50;99.90;;;;;;5042481;28;20287;-78
2021/07/10 02:38:13;;;;;;;5.57;4.63;;;14.40;99.90;;;;;;5041665;28;20636;-78
2021/07/10 02:40:40;;;;;;;4.70;4.20;;;14.40;99.90;;;;;;5043803;28;20196;-78
2021/07/10 02:43:07;;;;;;;5.13;4.63;;;14.50;99.90;;;;;;5046278;28;20287;-78
2021/07/10 02:45:35;;;;;;;5.30;4.80;;;14.40;99.90;;;;;;5045581;28;20231;-78
2021/07/10 02:48:04;;;;;;;5.13;4.63;;;14.40;99.90;;;;;;5046409;28;20250;-78
2021/07/10 02:50:31;;;;;;;5.17;4.67;;;14.40;99.90;;;;;;5037736;28;20251;-78
2021/07/10 02:53:01;;;;;;;5.23;4.73;;;14.40;99.90;;;;;;5046178;28;20311;-78
2021/07/10 02:55:29;;;;;;;5.73;4.50;;;14.40;99.90;;;;;;5044249;28;20617;-78
2021/07/10 02:57:56;;;;;;;4.83;4.37;;;14.40;99.90;;;;;;5034679;28;20215;-78
2021/07/10 03:00:24;;;;;;;8.87;4.77;;;14.40;99.90;;;;;;5042982;28;20203;-78
2021/07/10 03:02:51;;;;;;;5.40;4.47;;;14.40;99.90;;;;;;5050580;28;20290;-78
2021/07/10 03:05:20;;;;;;;7.87;4.83;;;14.30;99.90;;;;;;5046734;28;20239;-78
2021/07/10 03:07:47;;;;;;;5.40;4.50;;;14.30;99.90;;;;;;5046366;28;20234;-78
2021/07/10 03:10:17;;;;;;;5.07;4.57;;;14.30;99.90;;;;;;5039107;28;20239;-78
2021/07/10 03:12:44;;;;;;;5.40;4.63;;;14.30;99.90;;;;;;5045724;28;20266;-79
2021/07/10 03:15:15;;;;;;;6.63;5.10;;;14.30;99.90;;;;;;5047503;28;20228;-78
2021/07/10 03:17:42;;;;;;;5.53;4.97;;;14.30;99.90;;;;;;5045807;28;20192;-78
2021/07/10 03:20:10;;;;;;;6.70;5.40;;;14.30;99.90;;;;;;5040465;28;20205;-78
2021/07/10 03:22:39;;;;;;;7.73;5.70;;;14.30;99.90;;;;;;5037078;28;20247;-77
2021/07/10 03:25:08;;;;;;;9.13;4.97;;;14.30;99.90;;;;;;5042464;28;20227;-78
2021/07/10 03:27:35;;;;;;;5.87;4.90;;;14.30;99.90;;;;;;5052641;28;20230;-78
2021/07/10 03:30:04;;;;;;;5.43;4.93;;;14.30;99.90;;;;;;5046892;28;20267;-78
2021/07/10 03:32:31;;;;;;;5.73;4.97;;;14.30;99.90;;;;;;5039193;28;20302;-78
2021/07/10 03:34:58;;;;;;;5.60;5.00;;;14.30;99.90;;;;;;5044916;28;20231;-78
2021/07/10 03:37:25;;;;;;;6.70;5.53;;;14.30;99.90;;;;;;5053876;28;20738;-78
2021/07/10 03:39:53;;;;;;;5.77;5.20;;;14.30;99.90;;;;;;5042680;28;20291;-78
2021/07/10 03:42:20;;;;;;;5.97;5.17;;;14.30;99.90;;;;;;5033621;28;20220;-78
2021/07/10 03:44:47;;;;;;;6.20;5.23;;;14.20;99.90;;;;;;5042422;28;20223;-78
2021/07/10 03:47:14;;;;;;;5.77;4.77;;;14.20;99.90;;;;;;5053269;28;20227;-78
2021/07/10 03:49:41;;;;;;;7.90;5.40;;;14.20;99.90;;;;;;5044364;28;20227;-78
2021/07/10 03:52:08;;;;;;;5.90;4.73;;;14.20;99.90;;;;;;5045739;28;20318;-78
2021/07/10 03:54:35;;;;;;;7.87;4.93;;;14.10;99.90;;;;;;5051664;28;20672;-78
2021/07/10 03:57:04;;;;;;;5.90;5.20;;;14.10;99.90;;;;;;5032964;28;20713;-78
2021/07/10 03:59:31;;;;;;;6.97;5.33;;;14.10;99.90;;;;;;5040842;28;20235;-78
2021/07/10 04:01:58;;;;;;;6.50;5.50;;;14.10;99.90;;;;;;5053046;28;20238;-78
2021/07/10 04:04:25;;;;;;;6.67;5.60;;;14.10;99.90;;;;;;5053311;28;20278;-78
2021/07/10 04:06:53;;;;;;;6.77;5.80;;;14.00;99.90;;;;;;5035065;28;20288;-78
2021/07/10 04:09:19;;;;;;;7.47;5.97;;;14.00;99.90;;;;;;5039124;28;20325;-78
2021/07/10 04:11:46;;;;;;;7.00;6.13;;;13.90;99.90;;;;;;5051868;28;20306;-78
2021/07/10 04:14:15;;;;;;;6.37;5.77;;;13.90;99.90;;;;;;5037145;28;20192;-78
2021/07/10 04:16:41;;;;;;;7.67;6.10;;;13.90;99.90;;;;;;5045524;28;20284;-78
2021/07/10 04:19:09;;;;;;;7.30;6.40;;;13.90;99.90;;;;;;5044891;28;20286;-78
2021/07/10 04:21:36;;;;;;;8.50;6.10;;;13.90;99.90;;;;;;5037857;28;20244;-77
2021/07/10 04:24:02;;;;;;;7.10;6.33;;;13.90;99.90;;;;;;5049302;28;20290;-78
2021/07/10 04:26:29;;;;;;;8.90;6.83;;;13.80;99.90;;;;;;5039174;28;20227;-77
2021/07/10 04:28:56;;;;;;;7.57;6.70;;;13.90;99.90;;;;;;5044031;28;20286;-77
2021/07/10 04:31:25;;;;;;;8.07;6.17;;;13.80;99.90;;;;;;5041584;28;20287;-78
2021/07/10 04:33:52;;;;;;;8.40;6.57;;;13.80;99.90;;;;;;5040995;28;20632;-79
2021/07/10 04:36:19;;;;;;;9.10;6.77;;;13.80;99.90;;;;;;5032686;28;20232;-77
2021/07/10 04:38:45;;;;;;;8.43;6.63;;;13.80;99.90;;;;;;5032911;28;20403;-77
2021/07/10 04:41:12;;;;;;;7.27;6.53;;;13.80;99.90;;;;;;5039257;28;20295;-78
2021/07/10 04:43:40;;;;;;;7.13;6.47;;;13.80;99.90;;;;;;5040569;28;20565;-78
2021/07/10 04:46:08;;;;;;;7.83;6.57;;;13.80;99.90;;;;;;5042735;28;20277;-78
2021/07/10 04:48:37;;;;;;;7.60;6.43;;;13.80;99.90;;;;;;5041052;28;20192;-78
2021/07/10 04:51:04;;;;;;;8.70;6.30;;;13.80;99.90;;;;;;5040591;28;20250;-77
2021/07/10 04:53:31;;;;;;;8.60;6.63;;;13.80;99.90;;;;;;5043528;28;20659;-78
2021/07/10 04:55:58;;;;;;;8.43;7.00;;;13.80;99.90;;;;;;5043934;28;20282;-78
2021/07/10 04:58:25;;;;;;;8.80;6.77;;;13.80;99.90;;;;;;5032001;28;20236;-77
2021/07/10 05:00:52;;;;;;;7.73;6.43;;;13.90;99.90;;;;;;5038968;28;20200;-77
2021/07/10 05:03:21;;;;;;;10.03;6.80;;;13.90;99.90;;;;;;5041099;28;20283;-78
2021/07/10 05:05:50;;;;;;;7.30;6.43;;;13.90;99.90;;;;;;5044836;28;20742;-78
2021/07/10 05:08:17;;;;;;;7.93;6.00;;;13.90;99.90;;;;;;5041482;28;20204;-78
2021/07/10 05:10:44;;;;;;;6.93;6.20;;;13.90;99.90;;;;;;5038489;28;20239;-78
2021/07/10 05:13:11;;;;;;;7.20;5.97;;;13.90;99.90;;;;;;5043520;28;20230;-78
2021/07/10 05:15:38;;;;;;;7.27;6.03;;;13.90;99.90;;;;;;5040250;28;20220;-78
2021/07/10 05:18:06;;;;;;;8.80;5.90;;;14.00;99.90;;;;;;5040242;28;20283;-78
2021/07/10 05:20:33;;;;;;;7.10;5.77;;;14.10;99.90;;;;;;5031821;28;20196;-78
2021/07/10 05:23:02;;;;;;;6.70;5.67;;;14.10;99.90;;;;;;5039592;28;20277;-78
2021/07/10 05:25:29;;;;;;;5.70;4.90;;;14.20;99.90;;;;;;5041805;28;20288;-78
2021/07/10 05:27:56;;;;;;;6.37;5.30;;;14.30;99.90;;;;;;5043307;28;20227;-78
2021/07/10 05:30:23;;;;;;;7.80;5.00;;;14.30;99.90;;;;;;5041765;28;20195;-78
2021/07/10 05:32:50;;;;;;;7.10;4.90;;;14.40;99.90;;;;;;5039645;28;20255;-78
2021/07/10 05:35:18;;;;;;;6.80;4.93;;;14.50;99.90;;;;;;5039252;28;20278;-78
2021/07/10 05:37:46;;;;;;;5.60;4.77;;;14.50;99.90;;;;;;5042884;28;20701;-77
2021/07/10 05:40:14;;;;;;;6.00;4.77;;;14.50;99.90;;;;;;5050295;28;20295;-78
2021/07/10 05:42:41;;;;;;;6.37;4.90;;;14.60;99.90;;;;;;5034690;28;20235;-78
2021/07/10 05:45:09;;;;;;;5.10;4.60;;;14.60;99.90;;;;;;5051889;28;20637;-78
2021/07/10 05:47:36;;;;;;;6.20;4.43;;;14.70;99.90;;;;;;5051551;28;20270;-78
2021/07/10 05:50:05;;;;;;;5.60;4.23;;;14.70;99.90;;;;;;5044526;28;20239;-78
2021/07/10 05:52:32;;;;;;;5.97;4.17;;;14.90;99.90;;;;;;5040365;28;20303;-78
2021/07/10 05:54:59;;;;;;;6.63;4.50;;;14.90;99.90;;;;;;5043598;28;20808;-78
2021/07/10 05:57:27;;;;;;;5.03;4.13;;;15.00;99.90;;;;;;5039683;28;20628;-78
2021/07/10 05:59:54;;;;;;;5.07;4.00;;;14.90;99.90;;;;;;5035866;28;20264;-78
2021/07/10 06:02:21;;;;;;;6.80;4.30;;;15.00;99.90;;;;;;5043481;28;20664;-78
2021/07/10 06:04:48;;;;;;;5.50;4.03;;;15.00;99.90;;;;;;5042084;28;20283;-78
2021/07/10 06:07:15;;;;;;;4.30;3.63;;;15.10;99.90;;;;;;5042832;28;20357;-78
2021/07/10 06:09:42;;;;;;;4.77;4.20;;;15.10;99.90;;;;;;5034379;28;20662;-79
2021/07/10 06:12:10;;;;;;;5.37;4.10;;;15.00;99.90;;;;;;5043009;28;20709;-78
2021/07/10 06:14:38;;;;;;;5.83;4.10;;;14.90;99.90;;;;;;5041052;28;20242;-78
2021/07/10 06:17:06;;;;;;;4.83;4.00;;;14.90;99.90;;;;;;5047155;28;20626;-78
2021/07/10 06:19:32;;;;;;;5.30;3.93;;;14.80;99.90;;;;;;5046729;28;20279;-78
2021/07/10 06:21:59;;;;;;;6.10;4.40;;;14.80;99.90;;;;;;5046410;28;20767;-78
2021/07/10 06:24:27;;;;;;;5.93;4.60;;;14.90;99.90;;;;;;5046898;28;20282;-78
2021/07/10 06:26:54;;;;;;;6.03;4.47;;;14.80;99.90;;;;;;5036041;28;20660;-78
2021/07/10 06:29:21;;;;;;;6.47;4.83;;;14.90;99.90;;;;;;5046332;28;20200;-78
2021/07/10 06:31:50;;;;;;;6.80;5.10;;;14.80;99.90;;;;;;5055154;28;20240;-77
2021/07/10 06:34:17;;;;;;;6.33;5.10;;;14.80;99.90;;;;;;5043003;28;20212;-77
2021/07/10 06:36:44;;;;;;;6.30;4.93;;;14.70;99.90;;;;;;5034967;28;20291;-77
2021/07/10 06:39:11;;;;;;;5.33;4.80;;;14.70;99.90;;;;;;5035395;28;20236;-77
2021/07/10 06:41:38;;;;;;;6.53;5.27;;;14.70;99.90;;;;;;5034977;28;20239;-78
2021/07/10 06:44:06;;;;;;;6.63;5.23;;;14.60;99.90;;;;;;5039760;28;20196;-78
2021/07/10 06:46:33;;;;;;;6.93;5.20;;;14.60;99.90;;;;;;5055133;28;20231;-78
2021/07/10 06:49:01;;;;;;;7.23;5.60;;;14.60;99.90;;;;;;5054780;28;20291;-78
2021/07/10 06:51:28;;;;;;;6.70;6.00;;;14.60;99.90;;;;;;5039894;28;20209;-77
2021/07/10 06:53:55;;;;;;;6.63;5.80;;;14.60;99.90;;;;;;5034920;28;20320;-77
2021/07/10 06:56:22;;;;;;;8.13;6.33;;;14.60;99.90;;;;;;5042350;28;20294;-78
2021/07/10 06:58:49;;;;;;;8.20;5.73;;;14.60;99.90;;;;;;5046864;28;20243;-77
2021/07/10 07:01:16;;;;;;;6.40;5.70;;;14.60;99.90;;;;;;5050127;28;20286;-78
2021/07/10 07:03:43;;;;;;;9.93;5.80;;;14.60;99.90;;;;;;5053685;28;20734;-78
2021/07/10 07:06:11;;;;;;;6.37;5.67;;;14.60;99.90;;;;;;5042443;28;20291;-77
2021/07/10 07:08:38;;;;;;;7.97;5.57;;;14.50;99.90;;;;;;5034974;28;20238;-77
2021/07/10 07:11:05;;;;;;;8.53;5.80;;;14.50;99.90;;;;;;5041162;28;20284;-78
2021/07/10 07:13:32;;;;;;;8.13;5.60;;;14.50;99.90;;;;;;5041853;28;20706;-79
2021/07/10 07:15:59;;;;;;;5.87;5.27;;;14.50;99.90;;;;;;5054075;28;20239;-79
2021/07/10 07:18:26;;;;;;;8.77;5.73;;;14.60;99.90;;;;;;5039757;28;20288;-79
2021/07/10 07:20:53;;;;;;;7.57;5.50;;;14.70;99.90;;;;;;5035203;28;20254;-79
2021/07/10 07:23:21;;;;;;;7.13;5.67;;;14.70;99.90;;;;;;5034629;28;20279;-79
2021/07/10 07:25:48;;;;;;;6.63;5.40;;;14.70;99.90;;;;;;5042320;28;20738;-79
2021/07/10 07:28:15;;;;;;;7.90;5.80;;;14.70;99.90;;;;;;5047815;28;20745;-78
2021/07/10 07:30:42;;;;;;;8.50;6.30;;;14.60;99.90;;;;;;5049441;28;20279;-80
2021/07/10 07:33:09;;;;;;;8.97;7.47;;;14.50;99.90;;;;;;5034449;28;20314;-80
2021/07/10 07:35:36;;;;;;;9.53;6.80;;;14.60;99.90;;;;;;5053953;28;20287;-80
2021/07/10 07:38:04;;;;;;;9.00;5.93;;;14.60;99.90;;;;;;5054042;28;20617;-82
2021/07/10 07:40:32;;;;;;;7.60;5.97;;;14.60;99.90;;;;;;5053971;28;20239;-81
2021/07/10 07:42:59;;;;;;;7.33;6.10;;;14.60;99.90;;;;;;5053879;28;20291;-80
2021/07/10 07:45:26;;;;;;;9.90;6.13;;;14.70;99.90;;;;;;5054053;28;20303;-81
2021/07/10 07:47:53;;;;;;;9.17;6.30;;;14.70;99.90;;;;;;5038330;28;20315;-80
2021/07/10 07:50:20;;;;;;;8.57;5.67;;;14.80;99.90;;;;;;5033655;28;20236;-81
2021/07/10 07:52:48;;;;;;;6.73;5.90;;;14.70;99.90;;;;;;5034231;28;20230;-80
2021/07/10 07:55:16;;;;;;;7.47;5.93;;;14.70;99.90;;;;;;5034439;28;20204;-81
2021/07/10 07:57:44;;;;;;;9.93;5.93;;;14.60;99.90;;;;;;5047849;28;20675;-81
2021/07/10 08:00:14;;;;;;;9.03;5.63;;;14.70;99.90;;;;;;5049927;28;20200;-81
2021/07/10 08:02:42;;;;;;;6.87;5.50;;;14.70;99.90;;;;;;5042905;28;20203;-80
2021/07/10 08:05:10;;;;;;;7.37;6.07;;;14.80;99.90;;;;;;5044159;28;20227;-80
2021/07/10 08:07:37;;;;;;;6.70;5.97;;;14.80;99.90;;;;;;5053915;28;20254;-80
2021/07/10 08:10:05;;;;;;;7.23;5.53;;;14.70;99.90;;;;;;5053495;28;20231;-80
2021/07/10 08:12:33;;;;;;;8.33;5.67;;;14.90;99.90;;;;;;5050453;28;20569;-80
2021/07/10 08:15:02;;;;;;;8.40;6.47;;;15.00;99.90;;;;;;5053116;28;20200;-81
2021/07/10 08:17:29;;;;;;;7.90;6.17;;;15.00;99.90;;;;;;5033331;28;20228;-81
2021/07/10 08:19:56;;;;;;;6.47;5.60;;;15.30;99.90;;;;;;5033561;28;20207;-80
2021/07/10 08:22:23;;;;;;;6.83;5.60;;;15.40;99.90;;;;;;5033725;28;20252;-79
2021/07/10 08:24:50;;;;;;;7.63;5.70;;;15.40;99.90;;;;;;5045975;28;20273;-79
2021/07/10 08:27:18;;;;;;;6.17;4.97;;;15.30;99.90;;;;;;5053327;28;20286;-79
2021/07/10 08:29:45;;;;;;;6.37;5.77;;;15.20;99.90;;;;;;5048324;28;20207;-79
2021/07/10 08:32:13;;;;;;;8.63;5.67;;;15.40;99.90;;;;;;5040482;28;20315;-80
2021/07/10 08:34:40;;;;;;;6.90;5.30;;;15.40;99.90;;;;;;5049478;28;20299;-80
2021/07/10 08:37:07;;;;;;;7.50;5.40;;;15.40;99.90;;;;;;5052902;28;20231;-80
2021/07/10 08:39:34;;;;;;;6.90;5.33;;;15.40;99.90;;;;;;5052216;28;20243;-80
2021/07/10 08:42:02;;;;;;;7.00;5.63;;;15.50;99.90;;;;;;5052485;28;20353;-80
2021/07/10 08:44:30;;;;;;;6.03;5.43;;;15.50;99.90;;;;;;5036754;28;20283;-79
2021/07/10 08:46:57;;;;;;;7.77;5.83;;;15.70;99.90;;;;;;5034578;28;20315;-80
2021/07/10 08:49:26;;;;;;;6.37;5.40;;;15.60;99.90;;;;;;5040562;28;20232;-79
2021/07/10 08:51:54;;;;;;;7.23;5.27;;;15.60;99.90;;;;;;5038498;28;20283;-80
2021/07/10 08:54:21;;;;;;;6.63;4.70;;;15.60;99.90;;;;;;5052604;28;20314;-80
2021/07/10 08:56:48;;;;;;;6.40;4.73;;;15.40;99.90;;;;;;5036006;28;20288;-80
2021/07/10 08:59:14;;;;;;;6.57;4.77;;;15.30;99.90;;;;;;5048445;28;20231;-79
2021/07/10 09:01:42;;;;;;;6.27;4.40;;;15.40;99.90;;;;;;5045140;28;20235;-80
2021/07/10 09:04:09;;;;;;;8.90;5.73;;;15.40;99.90;;;;;;5037585;28;20286;-80
2021/07/10 09:06:37;;;;;;;6.70;4.80;;;15.40;99.90;;;;;;5043681;28;20665;-80
2021/07/10 09:09:04;;;;;;;8.27;4.83;;;15.30;99.90;;;;;;5052435;28;20964;-80
2021/07/10 09:11:32;;;;;;;6.87;5.03;;;15.40;99.90;;;;;;5034106;28;20644;-79
2021/07/10 09:14:00;;;;;;;7.13;4.73;;;15.40;99.90;;;;;;5047721;28;20220;-79
2021/07/10 09:16:28;;;;;;;6.70;5.10;;;15.40;99.90;;;;;;5052077;28;20200;-81
2021/07/10 09:18:58;;;;;;;7.40;4.70;;;15.50;99.90;;;;;;5050984;28;20285;-80
2021/07/10 09:21:39;;;;;;;6.50;4.93;;;15.40;99.90;;;;;;5044022;28;20669;-79
2021/07/10 09:24:13;;;;;;;6.93;4.70;;;15.40;99.90;;;;;;5031396;28;20286;-79
2021/07/10 09:26:45;;;;;;;7.40;5.00;;;15.30;99.90;;;;;;5037693;28;20208;-79
2021/07/10 09:29:15;;;;;;;6.97;5.07;;;15.30;99.90;;;;;;5035979;28;20247;-79
2021/07/10 09:31:43;;;;;;;7.27;5.30;;;15.20;99.90;;;;;;5044029;28;20224;-79
2021/07/10 09:34:14;;;;;;;6.53;4.90;;;15.40;99.90;;;;;;5036247;28;20302;-79
2021/07/10 09:36:56;;;;;;;7.07;4.50;;;15.30;99.90;;;;;;5040487;28;20254;-79
2021/07/10 09:39:24;;;;;;;6.40;5.17;;;15.20;99.90;;;;;;5043769;28;20202;-79
2021/07/10 09:41:53;;;;;;;8.53;5.23;;;15.20;99.90;;;;;;5038471;28;20382;-79
2021/07/10 09:44:20;;;;;;;6.80;4.70;;;15.20;99.90;;;;;;5033239;28;20228;-79
2021/07/10 09:46:47;;;;;;;6.93;4.83;;;15.20;99.90;;;;;;5040459;28;20263;-80
2021/07/10 09:49:34;;;;;;;7.07;4.80;;;15.30;99.90;;;;;;5047028;28;20228;-79
2021/07/10 09:52:09;;;;;;;6.23;4.37;;;15.40;99.90;;;;;;5042199;28;20287;-79
2021/07/10 09:54:38;;;;;;;6.17;3.90;;;15.40;99.90;;;;;;5036232;28;20216;-80
2021/07/10 09:57:11;;;;;;;5.57;3.53;;;15.40;99.90;;;;;;5044346;28;20740;-79
2021/07/10 09:59:41;;;;;;;7.60;4.53;;;15.30;99.90;;;;;;5045170;28;20282;-79
2021/07/10 10:02:26;;;;;;;4.97;4.03;;;15.40;99.90;;;;;;5042982;28;20287;-80
2021/07/10 10:05:01;;;;;;;6.43;4.20;;;15.40;99.90;;;;;;5031358;28;20580;-79
2021/07/10 10:07:29;;;;;;;6.63;3.90;;;15.40;99.90;;;;;;5036137;28;20203;-80
2021/07/10 10:09:59;;;;;;;7.67;4.27;;;15.40;99.90;;;;;;5051727;28;20231;-79
2021/07/10 10:12:26;;;;;;;7.03;4.57;;;15.40;99.90;;;;;;5049535;28;20202;-78
2021/07/10 10:14:56;;;;;;;5.33;4.17;;;15.40;99.90;;;;;;5041644;28;20251;-78
2021/07/10 10:17:26;;;;;;;5.70;3.97;;;15.40;99.90;;;;;;5034674;28;20203;-78
2021/07/10 10:19:53;;;;;;;5.10;4.00;;;15.40;99.90;;;;;;5045249;28;20633;-78
2021/07/10 10:22:20;;;;;;;6.13;4.20;;;15.40;99.90;;;;;;5031285;28;20251;-78
2021/07/10 10:24:51;;;;;;;5.07;3.87;;;15.50;99.90;;;;;;5040491;28;20279;-78
2021/07/10 10:27:18;;;;;;;6.80;4.07;;;15.80;99.90;;;;;;5045212;28;20300;-79
2021/07/10 10:29:46;;;;;;;4.57;3.87;;;15.70;99.90;;;;;;5039137;28;20238;-78
2021/07/10 10:32:14;;;;;;;4.17;3.70;;;15.40;99.90;;;;;;5032767;28;20944;-79
2021/07/10 10:34:41;;;;;;;4.73;4.00;;;15.40;99.90;;;;;;5040598;28;20306;-79
2021/07/10 10:37:09;;;;;;;4.07;3.43;;;15.40;99.90;;;;;;5033775;28;20303;-79
2021/07/10 10:39:37;;;;;;;23.13;14.73;;;15.40;99.90;;;;;;5033528;28;20667;-79
2021/07/10 10:42:09;;;;;;;37.53;28.40;;;15.50;99.90;;;;;;5041978;28;20255;-79
2021/07/10 10:44:39;;;;;;;7.03;4.83;;;15.40;99.90;;;;;;5037749;28;20275;-79
2021/07/10 10:47:09;;;;;;;6.60;4.60;;;15.50;99.90;;;;;;5035482;28;20290;-79
2021/07/10 10:49:44;;;;;;;6.17;5.43;;;15.50;99.90;;;;;;5040480;28;20200;-80
2021/07/10 10:52:32;;;;;;;6.77;5.73;;;15.60;99.90;;;;;;5040700;28;20639;-79
2021/07/10 10:55:08;;;;;;;5.87;4.80;;;15.70;99.90;;;;;;5036906;28;20228;-79
2021/07/10 10:57:40;;;;;;;33.47;27.57;;;15.90;99.90;;;;;;5042458;28;20199;-79
2021/07/10 11:00:13;;;;;;;8.23;6.73;;;16.00;99.90;;;;;;5045963;28;20282;-78
2021/07/10 11:02:55;;;;;;;13.50;11.90;;;16.20;99.90;;;;;;5045954;28;20254;-78
2021/07/10 11:05:44;;;;;;;7.00;4.80;;;16.10;99.90;;;;;;5040801;28;20291;-78
2021/07/10 11:08:31;;;;;;;13.40;10.80;;;16.10;99.90;;;;;;5053043;28;20290;-78
2021/07/10 11:11:35;;;;;;;40.63;35.50;;;16.20;99.90;;;;;;5042836;28;20232;-79
2021/07/10 11:14:14;;;;;;;5.23;4.70;;;16.10;99.90;;;;;;5037861;28;20311;-78
2021/07/10 11:17:07;;;;;;;3.40;2.70;;;16.30;99.90;;;;;;5034625;28;20694;-78
2021/07/10 11:19:52;;;;;;;7.87;7.07;;;16.40;99.90;;;;;;5042127;28;20295;-79
2021/07/10 11:22:53;;;;;;;2.63;2.30;;;16.70;99.90;;;;;;5051592;28;20258;-80
2021/07/10 11:26:02;;;;;;;3.57;2.20;;;17.00;99.90;;;;;;5033965;28;20200;-80
2021/07/10 11:28:57;;;;;;;5.80;5.20;;;17.60;99.90;;;;;;5040700;28;20192;-80
2021/07/10 11:31:36;;;;;;;1.90;1.80;;;17.50;99.90;;;;;;4973226;28;20265;-80
2021/07/10 11:34:09;;;;;;;2.05;1.50;;;17.60;99.90;;;;;;4962474;28;20781;-80
2021/07/10 11:36:52;;;;;;;2.63;1.57;;;17.40;99.90;;;;;;4953991;28;20246;-80
2021/07/10 11:39:51;;;;;;;1.90;1.60;;;17.30;99.90;;;;;;4969423;28;20253;-80
2021/07/10 11:42:47;;;;;;;1.90;1.60;;;17.30;99.90;;;;;;4962562;28;20282;-79
2021/07/10 11:45:29;;;;;;;2.77;1.57;;;17.20;99.90;;;;;;4969532;28;20202;-80
2021/07/10 11:48:14;;;;;;;2.20;1.77;;;17.30;99.90;;;;;;4968132;28;20213;-80
2021/07/10 11:50:41;;;;;;;2.50;1.90;;;17.00;99.90;;;;;;4968354;28;20285;-80
2021/07/10 11:53:13;;;;;;;3.23;2.20;;;17.00;99.90;;;;;;4969867;28;20563;-80
2021/07/10 11:55:45;;;;;;;3.37;2.23;;;17.10;99.90;;;;;;4971269;28;20360;-80
2021/07/10 11:58:14;;;;;;;2.87;2.43;;;17.10;99.90;;;;;;4962451;28;20295;-79
2021/07/10 12:00:41;;;;;;;2.45;2.25;;;17.60;99.90;;;;;;4959270;28;20659;-79
2021/07/10 12:03:18;;;;;;;3.00;2.70;;;18.00;99.90;;;;;;4953438;28;20702;-79
2021/07/10 12:05:45;;;;;;;3.47;2.63;;;17.90;99.90;;;;;;4968376;28;20202;-80
2021/07/10 12:08:12;;;;;;;3.20;2.40;;;17.90;99.90;;;;;;5027788;28;20735;-80
2021/07/10 12:10:41;;;;;;;3.00;2.70;;;17.80;99.90;;;;;;5039994;28;20283;-80
2021/07/10 12:13:11;;;;;;;3.55;2.70;;;18.20;99.90;;;;;;5039364;28;20246;-80
2021/07/10 12:15:40;;;;;;;3.17;2.65;;;19.00;99.90;;;;;;5035835;28;20918;-81
2021/07/10 12:18:09;;;;;;;3.75;2.90;;;18.90;99.90;;;;;;5032974;28;20287;-80
2021/07/10 12:20:40;;;;;;;3.63;2.63;;;18.90;99.90;;;;;;5041874;28;20235;-81
2021/07/10 12:23:10;;;;;;;5.00;3.00;;;18.70;99.90;;;;;;5035215;28;20722;-79
2021/07/10 12:25:44;;;;;;;3.55;2.85;;;18.30;99.90;;;;;;5038865;28;20200;-79
2021/07/10 12:28:11;;;;;;;3.33;3.00;;;18.10;99.90;;;;;;5051113;28;20234;-80
2021/07/10 12:30:40;;;;;;;4.82;3.30;;;17.90;99.90;;;;;;5042323;28;20295;-79
2021/07/10 12:33:36;;;;;;;3.25;2.83;;;17.60;99.90;;;;;;5043529;28;20239;-79
2021/07/10 12:36:12;;;;;;;4.40;3.33;;;17.50;99.90;;;;;;5045278;28;20219;-79
2021/07/10 12:39:03;;;;;;;4.07;3.47;;;17.50;99.90;;;;;;5044593;28;21643;-80
2021/07/10 12:41:38;;;;;;;3.97;3.10;;;17.50;99.90;;;;;;5029613;28;20239;-80
2021/07/10 12:44:17;;;;;;;2.70;2.38;;;17.80;99.90;;;;;;5047973;28;20231;-80
2021/07/10 12:47:06;;;;;;;3.78;2.92;;;18.20;99.90;;;;;;5042003;28;20267;-79
2021/07/10 12:49:37;;;;;;;3.42;2.67;;;18.60;99.90;;;;;;5042072;28;20201;-79
2021/07/10 12:52:09;;;;;;;3.20;2.80;;;18.70;99.90;;;;;;5034712;28;20212;-80
2021/07/10 12:54:42;;;;;;;2.58;2.25;;;19.40;99.90;;;;;;5036794;28;20278;-79
2021/07/10 12:57:21;;;;;;;2.58;2.22;;;19.70;99.90;;;;;;5032008;28;20680;-80